sensor_id;sensor_type;location;lat;lon;timestamp;temperature;humidity
6536;DHT22;34330;52.08032700;5.40923460;2023-02-01T09:31:53;10.30;85.60
6536;DHT22;34330;52.08032700;5.40923460;2023-02-01T09:34:29;10.50;85.80
6536;DHT22;34330;52.08032700;5.40923460;2023-02-01T09:37:00;10.50;85.40
6536;DHT22;34330;52.08032700;5.40923460;2023-02-01T09:39:28;10.60;85.40
6536;DHT22;34330;52.08032700;5.40923460;2023-02-01T09:42:05;10.60;85.30
6536;DHT22;34330;52.08032700;5.40923460;2023-02-01T09:44:50;10.60;85.00
6536;DHT22;34330;52.08032700;5.40923460;2023-02-01T09:47:23;10.70;84.40
6536;DHT22;34330;52.08032700;5.40923460;2023-02-01T09:49:56;10.70;84.20
6536;DHT22;34330;52.08032700;5.40923460;2023-02-01T09:52:28;10.70;84.20
6536;DHT22;34330;52.08032700;5.40923460;2023-02-01T09:55:00;10.80;84.10
6536;DHT22;34330;52.08032700;5.40923460;2023-02-01T09:57:40;10.80;84.20
6536;DHT22;34330;52.08032700;5.40923460;2023-02-01T10:00:16;10.80;84.20
6536;DHT22;34330;52.08032700;5.40923460;2023-02-01T10:02:47;10.80;84.10
6536;DHT22;34330;52.08032700;5.40923460;2023-02-01T10:05:30;10.80;84.10
6536;DHT22;34330;52.08032700;5.40923460;2023-02-01T10:08:06;10.80;83.90
6536;DHT22;34330;52.08032700;5.40923460;2023-02-01T10:10:42;10.80;84.00
6536;DHT22;34330;52.08032700;5.40923460;2023-02-01T10:13:26;10.80;83.90
6536;DHT22;34330;52.08032700;5.40923460;2023-02-01T10:16:17;10.80;83.80
6536;DHT22;34330;52.08032700;5.40923460;2023-02-01T10:19:10;10.80;83.50
6536;DHT22;34330;52.08032700;5.40923460;2023-02-01T10:21:51;10.80;83.80
6536;DHT22;34330;52.08032700;5.40923460;2023-02-01T10:24:34;10.80;84.00
6536;DHT22;34330;52.08032700;5.40923460;2023-02-01T10:27:13;10.80;84.30
6536;DHT22;34330;52.08032700;5.40923460;2023-02-01T10:29:43;10.80;84.40
6536;DHT22;34330;52.08032700;5.40923460;2023-02-01T10:32:15;10.70;84.70
6536;DHT22;34330;52.08032700;5.40923460;2023-02-01T10:34:51;10.80;85.10
6536;DHT22;34330;52.08032700;5.40923460;2023-02-01T10:37:26;10.70;84.90
6536;DHT22;34330;52.08032700;5.40923460;2023-02-01T10:39:56;10.60;85.20
6536;DHT22;34330;52.08032700;5.40923460;2023-02-01T10:42:26;10.60;85.40
6536;DHT22;34330;52.08032700;5.40923460;2023-02-01T10:44:57;10.80;85.80
6536;DHT22;34330;52.08032700;5.40923460;2023-02-01T10:47:26;10.50;85.60
6536;DHT22;34330;52.08032700;5.40923460;2023-02-01T10:50:02;10.50;85.40
6536;DHT22;34330;52.08032700;5.40923460;2023-02-01T10:52:38;10.50;85.40
6536;DHT22;34330;52.08032700;5.40923460;2023-02-01T10:55:28;10.50;85.50
6536;DHT22;34330;52.08032700;5.40923460;2023-02-01T10:57:59;10.40;85.20
6536;DHT22;34330;52.08032700;5.40923460;2023-02-01T11:00:28;10.40;85.40
6536;DHT22;34330;52.08032700;5.40923460;2023-02-01T11:03:19;10.50;85.40
6536;DHT22;34330;52.08032700;5.40923460;2023-02-01T11:05:49;10.40;85.10
6536;DHT22;34330;52.08032700;5.40923460;2023-02-01T11:08:18;10.50;85.10
6536;DHT22;34330;52.08032700;5.40923460;2023-02-01T11:10:47;10.50;85.40
6536;DHT22;34330;52.08032700;5.40923460;2023-02-01T11:13:29;10.50;85.40
6536;DHT22;34330;52.08032700;5.40923460;2023-02-01T11:15:58;10.50;85.20
6536;DHT22;34330;52.08032700;5.40923460;2023-02-01T11:18:35;10.50;85.10
6536;DHT22;34330;52.08032700;5.40923460;2023-02-01T11:21:06;10.50;85.00
6536;DHT22;34330;52.08032700;5.40923460;2023-02-01T11:23:40;10.60;85.00
6536;DHT22;34330;52.08032700;5.40923460;2023-02-01T11:26:12;10.60;85.20
6536;DHT22;34330;52.08032700;5.40923460;2023-02-01T11:28:46;10.60;85.00
6536;DHT22;34330;52.08032700;5.40923460;2023-02-01T11:31:18;10.60;85.20
6536;DHT22;34330;52.08032700;5.40923460;2023-02-01T11:33:50;10.60;85.20
6536;DHT22;34330;52.08032700;5.40923460;2023-02-01T11:36:24;10.70;85.40
6536;DHT22;34330;52.08032700;5.40923460;2023-02-01T11:39:08;10.60;85.30
6536;DHT22;34330;52.08032700;5.40923460;2023-02-01T11:41:41;10.70;85.40
6536;DHT22;34330;52.08032700;5.40923460;2023-02-01T11:44:21;10.70;85.30
6536;DHT22;34330;52.08032700;5.40923460;2023-02-01T11:46:49;10.80;85.20
6536;DHT22;34330;52.08032700;5.40923460;2023-02-01T11:49:22;10.80;85.10
6536;DHT22;34330;52.08032700;5.40923460;2023-02-01T11:52:08;10.80;85.30
6536;DHT22;34330;52.08032700;5.40923460;2023-02-01T11:54:51;10.80;85.20
6536;DHT22;34330;52.08032700;5.40923460;2023-02-01T11:57:34;10.90;85.00
6536;DHT22;34330;52.08032700;5.40923460;2023-02-01T12:00:24;10.90;85.10
6536;DHT22;34330;52.08032700;5.40923460;2023-02-01T12:03:25;10.90;85.20
6536;DHT22;34330;52.08032700;5.40923460;2023-02-01T12:05:59;11.00;85.20
6536;DHT22;34330;52.08032700;5.40923460;2023-02-01T12:11:30;11.10;85.20
6536;DHT22;34330;52.08032700;5.40923460;2023-02-01T12:14:13;11.10;84.90
6536;DHT22;34330;52.08032700;5.40923460;2023-02-01T12:16:53;11.20;84.90
6536;DHT22;34330;52.08032700;5.40923460;2023-02-01T12:19:45;11.20;84.80
6536;DHT22;34330;52.08032700;5.40923460;2023-02-01T12:22:25;11.20;85.20
6536;DHT22;34330;52.08032700;5.40923460;2023-02-01T12:25:16;11.30;84.50
6536;DHT22;34330;52.08032700;5.40923460;2023-02-01T12:30:49;11.80;84.60
6536;DHT22;34330;52.08032700;5.40923460;2023-02-01T12:33:29;11.40;84.00
6536;DHT22;34330;52.08032700;5.40923460;2023-02-01T12:36:19;11.40;83.60
6536;DHT22;34330;52.08032700;5.40923460;2023-02-01T12:38:53;11.40;83.40
6536;DHT22;34330;52.08032700;5.40923460;2023-02-01T12:41:48;11.50;83.60
6536;DHT22;34330;52.08032700;5.40923460;2023-02-01T12:44:27;11.40;83.00
6536;DHT22;34330;52.08032700;5.40923460;2023-02-01T12:46:58;11.40;83.10
6536;DHT22;34330;52.08032700;5.40923460;2023-02-01T12:49:33;11.40;83.10
6536;DHT22;34330;52.08032700;5.40923460;2023-02-01T12:52:06;11.40;83.20
6536;DHT22;34330;52.08032700;5.40923460;2023-02-01T12:54:37;11.50;83.20
6536;DHT22;34330;52.08032700;5.40923460;2023-02-01T12:57:12;11.40;82.90
6536;DHT22;34330;52.08032700;5.40923460;2023-02-01T12:59:46;11.50;82.90
6536;DHT22;34330;52.08032700;5.40923460;2023-02-01T13:02:21;11.50;82.70
6536;DHT22;34330;52.08032700;5.40923460;2023-02-01T13:04:58;11.50;82.90
6536;DHT22;34330;52.08032700;5.40923460;2023-02-01T13:07:31;11.50;83.10
6536;DHT22;34330;52.08032700;5.40923460;2023-02-01T13:10:05;11.50;82.80
6536;DHT22;34330;52.08032700;5.40923460;2023-02-01T13:12:47;11.50;82.90
6536;DHT22;34330;52.08032700;5.40923460;2023-02-01T13:15:21;11.50;82.60
6536;DHT22;34330;52.08032700;5.40923460;2023-02-01T13:17:52;11.50;82.50
6536;DHT22;34330;52.08032700;5.40923460;2023-02-01T13:20:27;11.50;82.50
6536;DHT22;34330;52.08032700;5.40923460;2023-02-01T13:23:00;11.50;82.40
6536;DHT22;34330;52.08032700;5.40923460;2023-02-01T13:25:36;11.50;82.40
6536;DHT22;34330;52.08032700;5.40923460;2023-02-01T13:28:20;11.50;82.60
6536;DHT22;34330;52.08032700;5.40923460;2023-02-01T13:31:15;11.50;82.40
6536;DHT22;34330;52.08032700;5.40923460;2023-02-01T13:33:56;11.50;82.60
6536;DHT22;34330;52.08032700;5.40923460;2023-02-01T13:36:42;11.50;82.60
6536;DHT22;34330;52.08032700;5.40923460;2023-02-01T13:39:33;11.50;82.30
6536;DHT22;34330;52.08032700;5.40923460;2023-02-01T13:42:13;11.50;82.40
6536;DHT22;34330;52.08032700;5.40923460;2023-02-01T13:44:46;11.50;82.50
6536;DHT22;34330;52.08032700;5.40923460;2023-02-01T13:47:24;11.50;82.70
6536;DHT22;34330;52.08032700;5.40923460;2023-02-01T13:49:55;11.50;82.50
6536;DHT22;34330;52.08032700;5.40923460;2023-02-01T13:52:36;11.50;82.80
6536;DHT22;34330;52.08032700;5.40923460;2023-02-01T13:55:25;11.50;82.60
6536;DHT22;34330;52.08032700;5.40923460;2023-02-01T13:58:02;11.50;82.60
6536;DHT22;34330;52.08032700;5.40923460;2023-02-01T14:00:32;11.50;82.70
6536;DHT22;34330;52.08032700;5.40923460;2023-02-01T14:03:13;11.50;82.80
6536;DHT22;34330;52.08032700;5.40923460;2023-02-01T14:06:15;11.50;82.60
6536;DHT22;34330;52.08032700;5.40923460;2023-02-01T14:09:10;11.60;82.70
6536;DHT22;34330;52.08032700;5.40923460;2023-02-01T14:11:43;11.60;82.50
6536;DHT22;34330;52.08032700;5.40923460;2023-02-01T14:14:45;11.60;82.80
6536;DHT22;34330;52.08032700;5.40923460;2023-02-01T14:17:35;11.60;82.40
6536;DHT22;34330;52.08032700;5.40923460;2023-02-01T14:23:28;11.60;82.60
6536;DHT22;34330;52.08032700;5.40923460;2023-02-01T14:26:09;11.60;82.70
6536;DHT22;34330;52.08032700;5.40923460;2023-02-01T14:28:49;11.60;82.70
6536;DHT22;34330;52.08032700;5.40923460;2023-02-01T14:32:02;11.60;82.80
6536;DHT22;34330;52.08032700;5.40923460;2023-02-01T14:34:48;11.60;82.70
6536;DHT22;34330;52.08032700;5.40923460;2023-02-01T14:37:28;11.60;82.80
6536;DHT22;34330;52.08032700;5.40923460;2023-02-01T14:39:59;11.60;82.80
6536;DHT22;34330;52.08032700;5.40923460;2023-02-01T14:42:35;11.60;83.00
6536;DHT22;34330;52.08032700;5.40923460;2023-02-01T14:48:43;11.60;83.00
6536;DHT22;34330;52.08032700;5.40923460;2023-02-01T14:51:16;11.60;82.90
6536;DHT22;34330;52.08032700;5.40923460;2023-02-01T14:53:45;11.60;82.80
6536;DHT22;34330;52.08032700;5.40923460;2023-02-01T14:56:17;11.60;82.80
6536;DHT22;34330;52.08032700;5.40923460;2023-02-01T14:58:52;11.60;83.00
6536;DHT22;34330;52.08032700;5.40923460;2023-02-01T15:01:24;13.00;84.30
6536;DHT22;34330;52.08032700;5.40923460;2023-02-01T15:03:58;11.60;83.00
6536;DHT22;34330;52.08032700;5.40923460;2023-02-01T15:06:32;11.60;83.20
6536;DHT22;34330;52.08032700;5.40923460;2023-02-01T15:09:09;11.60;83.50
6536;DHT22;34330;52.08032700;5.40923460;2023-02-01T15:11:54;11.60;84.00
6536;DHT22;34330;52.08032700;5.40923460;2023-02-01T15:14:23;11.60;83.90
6536;DHT22;34330;52.08032700;5.40923460;2023-02-01T15:16:51;11.60;83.80
6536;DHT22;34330;52.08032700;5.40923460;2023-02-01T15:19:22;11.60;83.70
6536;DHT22;34330;52.08032700;5.40923460;2023-02-01T15:21:54;11.50;83.70
6536;DHT22;34330;52.08032700;5.40923460;2023-02-01T15:24:24;11.50;83.70
6536;DHT22;34330;52.08032700;5.40923460;2023-02-01T15:26:53;11.50;83.70
6536;DHT22;34330;52.08032700;5.40923460;2023-02-01T15:29:23;11.60;83.90
6536;DHT22;34330;52.08032700;5.40923460;2023-02-01T15:31:54;11.10;83.40
6536;DHT22;34330;52.08032700;5.40923460;2023-02-01T15:34:22;11.60;83.80
6536;DHT22;34330;52.08032700;5.40923460;2023-02-01T15:36:52;11.60;83.90
6536;DHT22;34330;52.08032700;5.40923460;2023-02-01T15:39:29;11.60;84.00
6536;DHT22;34330;52.08032700;5.40923460;2023-02-01T15:42:00;11.60;83.80
6536;DHT22;34330;52.08032700;5.40923460;2023-02-01T15:44:33;11.60;83.80
6536;DHT22;34330;52.08032700;5.40923460;2023-02-01T15:47:08;11.60;83.90
6536;DHT22;34330;52.08032700;5.40923460;2023-02-01T15:49:40;11.60;83.70
6536;DHT22;34330;52.08032700;5.40923460;2023-02-01T15:52:20;11.60;83.80
6536;DHT22;34330;52.08032700;5.40923460;2023-02-01T15:54:51;11.60;83.70
6536;DHT22;34330;52.08032700;5.40923460;2023-02-01T15:57:23;11.50;83.70
6536;DHT22;34330;52.08032700;5.40923460;2023-02-01T15:59:57;11.60;83.80
6536;DHT22;34330;52.08032700;5.40923460;2023-02-01T16:02:28;11.60;83.60
6536;DHT22;34330;52.08032700;5.40923460;2023-02-01T16:04:57;11.60;83.70
6536;DHT22;34330;52.08032700;5.40923460;2023-02-01T16:07:29;11.60;83.60
6536;DHT22;34330;52.08032700;5.40923460;2023-02-01T16:09:59;11.60;83.60
6536;DHT22;34330;52.08032700;5.40923460;2023-02-01T16:12:34;11.60;83.50
6536;DHT22;34330;52.08032700;5.40923460;2023-02-01T16:15:03;12.20;84.10
6536;DHT22;34330;52.08032700;5.40923460;2023-02-01T16:17:32;13.20;85.20
6536;DHT22;34330;52.08032700;5.40923460;2023-02-01T16:19:59;11.60;83.50
6536;DHT22;34330;52.08032700;5.40923460;2023-02-01T16:22:29;11.60;83.50
6536;DHT22;34330;52.08032700;5.40923460;2023-02-01T16:24:57;11.60;83.40
6536;DHT22;34330;52.08032700;5.40923460;2023-02-01T16:27:25;11.60;83.40
6536;DHT22;34330;52.08032700;5.40923460;2023-02-01T16:29:52;11.70;83.60
6536;DHT22;34330;52.08032700;5.40923460;2023-02-01T16:32:23;11.60;83.50
6536;DHT22;34330;52.08032700;5.40923460;2023-02-01T16:34:53;11.70;83.30
6536;DHT22;34330;52.08032700;5.40923460;2023-02-01T16:37:23;11.70;83.50
6536;DHT22;34330;52.08032700;5.40923460;2023-02-01T16:39:52;11.70;83.60
6536;DHT22;34330;52.08032700;5.40923460;2023-02-01T16:42:21;11.70;83.60
6536;DHT22;34330;52.08032700;5.40923460;2023-02-01T16:44:48;11.70;83.40
6536;DHT22;34330;52.08032700;5.40923460;2023-02-01T16:47:19;11.70;83.50
6536;DHT22;34330;52.08032700;5.40923460;2023-02-01T16:49:49;11.70;83.60
6536;DHT22;34330;52.08032700;5.40923460;2023-02-01T16:52:20;11.70;83.50
6536;DHT22;34330;52.08032700;5.40923460;2023-02-01T16:54:48;13.70;85.50
6536;DHT22;34330;52.08032700;5.40923460;2023-02-01T16:57:19;11.70;83.30
6536;DHT22;34330;52.08032700;5.40923460;2023-02-01T16:59:49;11.70;83.50
6536;DHT22;34330;52.08032700;5.40923460;2023-02-01T17:02:19;11.70;83.40
6536;DHT22;34330;52.08032700;5.40923460;2023-02-01T17:04:48;11.70;83.60
6536;DHT22;34330;52.08032700;5.40923460;2023-02-01T17:07:18;11.70;83.30
6536;DHT22;34330;52.08032700;5.40923460;2023-02-01T17:09:46;11.70;83.70
6536;DHT22;34330;52.08032700;5.40923460;2023-02-01T17:12:21;11.70;83.70
6536;DHT22;34330;52.08032700;5.40923460;2023-02-01T17:14:50;11.80;83.80
6536;DHT22;34330;52.08032700;5.40923460;2023-02-01T17:17:18;11.70;83.50
6536;DHT22;34330;52.08032700;5.40923460;2023-02-01T17:20:03;12.00;83.90
6536;DHT22;34330;52.08032700;5.40923460;2023-02-01T17:22:32;11.80;83.60
6536;DHT22;34330;52.08032700;5.40923460;2023-02-01T17:25:00;11.80;83.80
6536;DHT22;34330;52.08032700;5.40923460;2023-02-01T17:27:30;11.80;83.80
6536;DHT22;34330;52.08032700;5.40923460;2023-02-01T17:29:59;11.80;83.60
6536;DHT22;34330;52.08032700;5.40923460;2023-02-01T17:32:30;11.80;83.60
6536;DHT22;34330;52.08032700;5.40923460;2023-02-01T17:34:58;11.80;83.60
6536;DHT22;34330;52.08032700;5.40923460;2023-02-01T17:37:28;11.80;83.90
6536;DHT22;34330;52.08032700;5.40923460;2023-02-01T17:39:56;11.80;84.00
6536;DHT22;34330;52.08032700;5.40923460;2023-02-01T17:42:25;11.80;84.00
6536;DHT22;34330;52.08032700;5.40923460;2023-02-01T17:44:57;11.80;84.10
6536;DHT22;34330;52.08032700;5.40923460;2023-02-01T17:47:26;11.80;83.90
6536;DHT22;34330;52.08032700;5.40923460;2023-02-01T17:49:54;11.80;84.00
6536;DHT22;34330;52.08032700;5.40923460;2023-02-01T17:52:23;11.80;84.10
6536;DHT22;34330;52.08032700;5.40923460;2023-02-01T17:54:51;11.80;84.00
6536;DHT22;34330;52.08032700;5.40923460;2023-02-01T17:57:20;12.00;84.10
6536;DHT22;34330;52.08032700;5.40923460;2023-02-01T17:59:48;11.80;84.00
6536;DHT22;34330;52.08032700;5.40923460;2023-02-01T18:02:20;11.80;84.00
6536;DHT22;34330;52.08032700;5.40923460;2023-02-01T18:04:50;11.80;84.00
6536;DHT22;34330;52.08032700;5.40923460;2023-02-01T18:07:18;11.80;84.60
6536;DHT22;34330;52.08032700;5.40923460;2023-02-01T18:09:46;11.80;84.00
6536;DHT22;34330;52.08032700;5.40923460;2023-02-01T18:12:18;11.80;84.10
6536;DHT22;34330;52.08032700;5.40923460;2023-02-01T18:14:47;11.90;84.20
6536;DHT22;34330;52.08032700;5.40923460;2023-02-01T18:17:15;11.80;84.00
6536;DHT22;34330;52.08032700;5.40923460;2023-02-01T18:19:47;11.90;84.20
6536;DHT22;34330;52.08032700;5.40923460;2023-02-01T18:22:16;11.90;84.00
6536;DHT22;34330;52.08032700;5.40923460;2023-02-01T18:24:45;11.80;84.10
6536;DHT22;34330;52.08032700;5.40923460;2023-02-01T18:27:13;11.90;84.00
6536;DHT22;34330;52.08032700;5.40923460;2023-02-01T18:29:41;11.90;84.00
6536;DHT22;34330;52.08032700;5.40923460;2023-02-01T18:32:09;11.90;84.20
6536;DHT22;34330;52.08032700;5.40923460;2023-02-01T18:34:37;11.90;84.10
6536;DHT22;34330;52.08032700;5.40923460;2023-02-01T18:37:07;11.90;84.10
6536;DHT22;34330;52.08032700;5.40923460;2023-02-01T18:39:35;11.90;84.10
6536;DHT22;34330;52.08032700;5.40923460;2023-02-01T18:42:04;11.90;84.10
6536;DHT22;34330;52.08032700;5.40923460;2023-02-01T18:44:32;11.90;84.10
6536;DHT22;34330;52.08032700;5.40923460;2023-02-01T18:47:00;11.90;84.10
6536;DHT22;34330;52.08032700;5.40923460;2023-02-01T18:49:28;11.90;84.20
6536;DHT22;34330;52.08032700;5.40923460;2023-02-01T18:51:56;11.90;84.10
6536;DHT22;34330;52.08032700;5.40923460;2023-02-01T18:54:26;11.90;84.20
6536;DHT22;34330;52.08032700;5.40923460;2023-02-01T18:56:54;11.90;84.20
6536;DHT22;34330;52.08032700;5.40923460;2023-02-01T18:59:21;11.90;84.10
6536;DHT22;34330;52.08032700;5.40923460;2023-02-01T19:01:50;11.90;84.10
6536;DHT22;34330;52.08032700;5.40923460;2023-02-01T19:04:18;11.90;84.10
6536;DHT22;34330;52.08032700;5.40923460;2023-02-01T19:06:52;11.90;84.20
6536;DHT22;34330;52.08032700;5.40923460;2023-02-01T19:09:20;11.90;84.20
6536;DHT22;34330;52.08032700;5.40923460;2023-02-01T19:11:50;11.90;84.20
6536;DHT22;34330;52.08032700;5.40923460;2023-02-01T19:14:18;11.90;84.20
6536;DHT22;34330;52.08032700;5.40923460;2023-02-01T19:16:46;11.90;84.20
6536;DHT22;34330;52.08032700;5.40923460;2023-02-01T19:19:14;11.90;84.20
6536;DHT22;34330;52.08032700;5.40923460;2023-02-01T19:21:41;11.90;84.20
6536;DHT22;34330;52.08032700;5.40923460;2023-02-01T19:24:12;11.90;84.30
6536;DHT22;34330;52.08032700;5.40923460;2023-02-01T19:26:40;11.90;84.10
6536;DHT22;34330;52.08032700;5.40923460;2023-02-01T19:29:10;11.90;84.20
6536;DHT22;34330;52.08032700;5.40923460;2023-02-01T19:31:38;11.90;84.20
6536;DHT22;34330;52.08032700;5.40923460;2023-02-01T19:34:06;11.90;84.20
6536;DHT22;34330;52.08032700;5.40923460;2023-02-01T19:36:34;11.90;84.20
6536;DHT22;34330;52.08032700;5.40923460;2023-02-01T19:39:08;11.90;84.10
6536;DHT22;34330;52.08032700;5.40923460;2023-02-01T19:41:36;11.90;84.20
6536;DHT22;34330;52.08032700;5.40923460;2023-02-01T19:44:04;11.90;84.20
6536;DHT22;34330;52.08032700;5.40923460;2023-02-01T19:46:34;11.90;84.20
6536;DHT22;34330;52.08032700;5.40923460;2023-02-01T19:49:01;11.90;84.10
6536;DHT22;34330;52.08032700;5.40923460;2023-02-01T19:51:30;11.90;84.10
6536;DHT22;34330;52.08032700;5.40923460;2023-02-01T19:53:58;11.90;84.10
6536;DHT22;34330;52.08032700;5.40923460;2023-02-01T19:56:26;12.00;84.00
6536;DHT22;34330;52.08032700;5.40923460;2023-02-01T19:58:54;11.90;84.20
6536;DHT22;34330;52.08032700;5.40923460;2023-02-01T20:01:21;11.90;84.20
6536;DHT22;34330;52.08032700;5.40923460;2023-02-01T20:03:53;11.90;84.20
6536;DHT22;34330;52.08032700;5.40923460;2023-02-01T20:06:24;11.90;84.30
6536;DHT22;34330;52.08032700;5.40923460;2023-02-01T20:08:52;11.90;84.20
6536;DHT22;34330;52.08032700;5.40923460;2023-02-01T20:11:20;11.90;84.20
6536;DHT22;34330;52.08032700;5.40923460;2023-02-01T20:13:50;11.90;84.20
6536;DHT22;34330;52.08032700;5.40923460;2023-02-01T20:16:19;11.90;84.90
6536;DHT22;34330;52.08032700;5.40923460;2023-02-01T20:18:48;11.90;84.30
6536;DHT22;34330;52.08032700;5.40923460;2023-02-01T20:21:17;11.90;84.40
6536;DHT22;34330;52.08032700;5.40923460;2023-02-01T20:23:45;11.90;84.30
6536;DHT22;34330;52.08032700;5.40923460;2023-02-01T20:26:14;11.90;84.30
6536;DHT22;34330;52.08032700;5.40923460;2023-02-01T20:28:42;11.80;84.10
6536;DHT22;34330;52.08032700;5.40923460;2023-02-01T20:31:10;11.80;84.20
6536;DHT22;34330;52.08032700;5.40923460;2023-02-01T20:33:38;12.10;84.50
6536;DHT22;34330;52.08032700;5.40923460;2023-02-01T20:36:07;11.80;84.30
6536;DHT22;34330;52.08032700;5.40923460;2023-02-01T20:38:36;11.80;84.50
6536;DHT22;34330;52.08032700;5.40923460;2023-02-01T20:41:06;11.80;84.50
6536;DHT22;34330;52.08032700;5.40923460;2023-02-01T20:43:35;11.80;84.70
6536;DHT22;34330;52.08032700;5.40923460;2023-02-01T20:46:03;11.80;84.70
6536;DHT22;34330;52.08032700;5.40923460;2023-02-01T20:48:31;11.80;84.70
6536;DHT22;34330;52.08032700;5.40923460;2023-02-01T20:50:59;11.80;84.80
6536;DHT22;34330;52.08032700;5.40923460;2023-02-01T20:53:27;11.80;84.80
6536;DHT22;34330;52.08032700;5.40923460;2023-02-01T20:55:57;11.80;84.90
6536;DHT22;34330;52.08032700;5.40923460;2023-02-01T20:58:25;11.80;85.00
6536;DHT22;34330;52.08032700;5.40923460;2023-02-01T21:00:53;11.80;85.10
6536;DHT22;34330;52.08032700;5.40923460;2023-02-01T21:03:22;11.90;85.10
6536;DHT22;34330;52.08032700;5.40923460;2023-02-01T21:05:51;11.90;85.20
6536;DHT22;34330;52.08032700;5.40923460;2023-02-01T21:08:20;11.90;85.20
6536;DHT22;34330;52.08032700;5.40923460;2023-02-01T21:10:54;11.90;85.10
6536;DHT22;34330;52.08032700;5.40923460;2023-02-01T21:13:24;11.90;85.30
6536;DHT22;34330;52.08032700;5.40923460;2023-02-01T21:15:53;11.90;85.30
6536;DHT22;34330;52.08032700;5.40923460;2023-02-01T21:18:21;11.90;85.10
6536;DHT22;34330;52.08032700;5.40923460;2023-02-01T21:20:49;11.90;85.20
6536;DHT22;34330;52.08032700;5.40923460;2023-02-01T21:23:17;11.90;85.00
6536;DHT22;34330;52.08032700;5.40923460;2023-02-01T21:25:45;11.90;85.20
6536;DHT22;34330;52.08032700;5.40923460;2023-02-01T21:28:16;11.90;85.20
6536;DHT22;34330;52.08032700;5.40923460;2023-02-01T21:30:48;11.90;85.20
6536;DHT22;34330;52.08032700;5.40923460;2023-02-01T21:33:17;11.90;85.20
6536;DHT22;34330;52.08032700;5.40923460;2023-02-01T21:35:48;11.90;85.20
6536;DHT22;34330;52.08032700;5.40923460;2023-02-01T21:38:17;11.90;85.30
6536;DHT22;34330;52.08032700;5.40923460;2023-02-01T21:40:48;11.90;85.30
6536;DHT22;34330;52.08032700;5.40923460;2023-02-01T21:43:36;12.00;85.50
6536;DHT22;34330;52.08032700;5.40923460;2023-02-01T21:46:05;12.00;85.40
6536;DHT22;34330;52.08032700;5.40923460;2023-02-01T21:48:34;12.00;85.40
6536;DHT22;34330;52.08032700;5.40923460;2023-02-01T21:51:23;12.00;85.40
6536;DHT22;34330;52.08032700;5.40923460;2023-02-01T21:53:51;12.00;85.40
6536;DHT22;34330;52.08032700;5.40923460;2023-02-01T21:56:19;12.00;85.40
6536;DHT22;34330;52.08032700;5.40923460;2023-02-01T21:58:47;12.00;85.50
6536;DHT22;34330;52.08032700;5.40923460;2023-02-01T22:01:16;12.00;85.40
6536;DHT22;34330;52.08032700;5.40923460;2023-02-01T22:03:45;12.00;85.50
6536;DHT22;34330;52.08032700;5.40923460;2023-02-01T22:06:21;12.00;85.50
6536;DHT22;34330;52.08032700;5.40923460;2023-02-01T22:08:50;12.00;85.70
6536;DHT22;34330;52.08032700;5.40923460;2023-02-01T22:11:18;12.00;85.90
6536;DHT22;34330;52.08032700;5.40923460;2023-02-01T22:13:46;12.10;86.40
6536;DHT22;34330;52.08032700;5.40923460;2023-02-01T22:16:16;12.00;86.50
6536;DHT22;34330;52.08032700;5.40923460;2023-02-01T22:18:47;12.00;86.60
6536;DHT22;34330;52.08032700;5.40923460;2023-02-01T22:21:15;12.00;86.80
6536;DHT22;34330;52.08032700;5.40923460;2023-02-01T22:23:43;12.00;86.80
6536;DHT22;34330;52.08032700;5.40923460;2023-02-01T22:26:12;11.90;86.70
6536;DHT22;34330;52.08032700;5.40923460;2023-02-01T22:28:41;11.90;86.90
6536;DHT22;34330;52.08032700;5.40923460;2023-02-01T22:31:10;11.90;87.30
6536;DHT22;34330;52.08032700;5.40923460;2023-02-01T22:33:39;11.80;87.50
6536;DHT22;34330;52.08032700;5.40923460;2023-02-01T22:36:08;11.80;87.80
6536;DHT22;34330;52.08032700;5.40923460;2023-02-01T22:38:36;11.80;88.10
6536;DHT22;34330;52.08032700;5.40923460;2023-02-01T22:41:05;11.80;88.20
6536;DHT22;34330;52.08032700;5.40923460;2023-02-01T22:43:33;11.70;88.60
6536;DHT22;34330;52.08032700;5.40923460;2023-02-01T22:46:04;11.70;88.80
6536;DHT22;34330;52.08032700;5.40923460;2023-02-01T22:48:35;11.70;89.20
6536;DHT22;34330;52.08032700;5.40923460;2023-02-01T22:51:05;11.70;89.70
6536;DHT22;34330;52.08032700;5.40923460;2023-02-01T22:53:33;11.60;90.00
6536;DHT22;34330;52.08032700;5.40923460;2023-02-01T22:56:02;11.60;89.80
6536;DHT22;34330;52.08032700;5.40923460;2023-02-01T22:58:30;11.60;90.00
6536;DHT22;34330;52.08032700;5.40923460;2023-02-01T23:01:04;11.60;90.10
6536;DHT22;34330;52.08032700;5.40923460;2023-02-01T23:03:34;11.90;90.40
6536;DHT22;34330;52.08032700;5.40923460;2023-02-01T23:06:04;11.50;90.30
6536;DHT22;34330;52.08032700;5.40923460;2023-02-01T23:08:33;11.50;90.40
6536;DHT22;34330;52.08032700;5.40923460;2023-02-01T23:11:03;11.80;90.70
6536;DHT22;34330;52.08032700;5.40923460;2023-02-01T23:13:32;11.50;90.60
6536;DHT22;34330;52.08032700;5.40923460;2023-02-01T23:16:04;11.40;90.70
6536;DHT22;34330;52.08032700;5.40923460;2023-02-01T23:18:32;11.40;90.80
6536;DHT22;34330;52.08032700;5.40923460;2023-02-01T23:21:08;11.40;90.90
6536;DHT22;34330;52.08032700;5.40923460;2023-02-01T23:23:36;11.40;91.00
6536;DHT22;34330;52.08032700;5.40923460;2023-02-01T23:26:05;11.40;90.90
6536;DHT22;34330;52.08032700;5.40923460;2023-02-01T23:28:33;11.40;91.00
6536;DHT22;34330;52.08032700;5.40923460;2023-02-01T23:31:06;11.40;91.00
6536;DHT22;34330;52.08032700;5.40923460;2023-02-01T23:33:36;11.40;91.20
6536;DHT22;34330;52.08032700;5.40923460;2023-02-01T23:36:08;11.40;91.00
6536;DHT22;34330;52.08032700;5.40923460;2023-02-01T23:38:37;11.30;91.10
6536;DHT22;34330;52.08032700;5.40923460;2023-02-01T23:41:06;11.80;91.30
6536;DHT22;34330;52.08032700;5.40923460;2023-02-01T23:43:34;11.30;91.10
6536;DHT22;34330;52.08032700;5.40923460;2023-02-01T23:46:20;11.30;91.20
6536;DHT22;34330;52.08032700;5.40923460;2023-02-01T23:48:48;11.30;91.20